Briggsville, Wisconsin
Current Conditions -  °F | °C
As of 5:55 AM on Thursday 27 Nov 2014 (Local Time) from KDLL Reporting Station
Broken Clouds Broken Clouds  
Wind Chill: 10°   Ceiling: 1400
Heat Index: 17°   Visibility: 10mi
Dew Point: 14°   Wind: 5mph
Humidity: 86%   Direction: 330°NNW
Pressure: 30.3"   Gusts: NA
Location:  43.65°N, 89.59°W
Report Text: KDLL 271155Z AUTO 33004KT 10SM BKN014 M08/M10 A3030 RMK AO2 T10821102 11052 21084
Loading
Personal Weather Stations






























Interactive Weather Map New forecast layout! Learn more

10-Day Weather Forecast

Advertisements
Track Severe Weather on mobile